sensor_id;sensor_type;location;lat;lon;timestamp;temperature;humidity
17489;DHT22;8861;52.644;4.734;2023-04-03T00:01:48;4.70;99.90
17489;DHT22;8861;52.644;4.734;2023-04-03T00:04:14;4.70;99.90
17489;DHT22;8861;52.644;4.734;2023-04-03T00:06:43;4.70;99.90
17489;DHT22;8861;52.644;4.734;2023-04-03T00:09:10;4.70;99.90
17489;DHT22;8861;52.644;4.734;2023-04-03T00:11:37;4.70;99.90
17489;DHT22;8861;52.644;4.734;2023-04-03T00:14:04;4.60;99.90
17489;DHT22;8861;52.644;4.734;2023-04-03T00:16:31;4.60;99.90
17489;DHT22;8861;52.644;4.734;2023-04-03T00:18:58;4.60;99.90
17489;DHT22;8861;52.644;4.734;2023-04-03T00:21:25;4.60;99.90
17489;DHT22;8861;52.644;4.734;2023-04-03T00:23:53;4.60;99.90
17489;DHT22;8861;52.644;4.734;2023-04-03T00:26:20;4.50;99.90
17489;DHT22;8861;52.644;4.734;2023-04-03T00:28:47;4.50;99.90
17489;DHT22;8861;52.644;4.734;2023-04-03T00:31:14;4.50;99.90
17489;DHT22;8861;52.644;4.734;2023-04-03T00:33:42;4.50;99.90
17489;DHT22;8861;52.644;4.734;2023-04-03T00:36:10;4.40;99.90
17489;DHT22;8861;52.644;4.734;2023-04-03T00:38:39;4.40;99.90
17489;DHT22;8861;52.644;4.734;2023-04-03T00:41:07;4.40;99.90
17489;DHT22;8861;52.644;4.734;2023-04-03T00:43:35;4.40;99.90
17489;DHT22;8861;52.644;4.734;2023-04-03T00:46:02;4.40;99.90
17489;DHT22;8861;52.644;4.734;2023-04-03T00:48:31;4.30;99.90
17489;DHT22;8861;52.644;4.734;2023-04-03T00:50:59;4.40;99.90
17489;DHT22;8861;52.644;4.734;2023-04-03T00:53:30;4.30;99.90
17489;DHT22;8861;52.644;4.734;2023-04-03T00:56:00;4.30;99.90
17489;DHT22;8861;52.644;4.734;2023-04-03T00:58:34;4.30;99.90
17489;DHT22;8861;52.644;4.734;2023-04-03T01:01:07;4.20;99.90
17489;DHT22;8861;52.644;4.734;2023-04-03T01:03:35;4.20;99.90
17489;DHT22;8861;52.644;4.734;2023-04-03T01:06:02;4.20;99.90
17489;DHT22;8861;52.644;4.734;2023-04-03T01:08:30;4.20;99.90
17489;DHT22;8861;52.644;4.734;2023-04-03T01:10:57;4.10;99.90
17489;DHT22;8861;52.644;4.734;2023-04-03T01:13:26;4.20;99.90
17489;DHT22;8861;52.644;4.734;2023-04-03T01:15:55;4.10;99.90
17489;DHT22;8861;52.644;4.734;2023-04-03T01:18:24;4.10;99.90
17489;DHT22;8861;52.644;4.734;2023-04-03T01:21:23;4.10;99.90
17489;DHT22;8861;52.644;4.734;2023-04-03T01:24:01;4.10;99.90
17489;DHT22;8861;52.644;4.734;2023-04-03T01:26:29;4.00;99.90
17489;DHT22;8861;52.644;4.734;2023-04-03T01:28:59;4.00;99.90
17489;DHT22;8861;52.644;4.734;2023-04-03T01:31:40;4.00;99.90
17489;DHT22;8861;52.644;4.734;2023-04-03T01:34:07;4.00;99.90
17489;DHT22;8861;52.644;4.734;2023-04-03T01:36:34;4.00;99.90
17489;DHT22;8861;52.644;4.734;2023-04-03T01:39:01;4.00;99.90
17489;DHT22;8861;52.644;4.734;2023-04-03T01:41:28;3.90;99.90
17489;DHT22;8861;52.644;4.734;2023-04-03T01:43:55;3.90;99.90
17489;DHT22;8861;52.644;4.734;2023-04-03T01:46:22;3.90;99.90
17489;DHT22;8861;52.644;4.734;2023-04-03T01:48:51;3.90;99.90
17489;DHT22;8861;52.644;4.734;2023-04-03T01:51:18;3.80;99.90
17489;DHT22;8861;52.644;4.734;2023-04-03T01:53:45;3.80;99.90
17489;DHT22;8861;52.644;4.734;2023-04-03T01:56:12;3.80;99.90
17489;DHT22;8861;52.644;4.734;2023-04-03T01:58:39;3.80;99.90
17489;DHT22;8861;52.644;4.734;2023-04-03T02:01:06;3.80;99.90
17489;DHT22;8861;52.644;4.734;2023-04-03T02:03:33;3.70;99.90
17489;DHT22;8861;52.644;4.734;2023-04-03T02:06:02;3.70;99.90
17489;DHT22;8861;52.644;4.734;2023-04-03T02:08:29;3.70;99.90
17489;DHT22;8861;52.644;4.734;2023-04-03T02:10:56;3.70;99.90
17489;DHT22;8861;52.644;4.734;2023-04-03T02:13:23;3.60;99.90
17489;DHT22;8861;52.644;4.734;2023-04-03T02:15:50;3.60;99.90
17489;DHT22;8861;52.644;4.734;2023-04-03T02:18:17;3.60;99.90
17489;DHT22;8861;52.644;4.734;2023-04-03T02:20:45;3.50;99.90
17489;DHT22;8861;52.644;4.734;2023-04-03T02:23:14;3.50;99.90
17489;DHT22;8861;52.644;4.734;2023-04-03T02:25:41;3.60;99.90
17489;DHT22;8861;52.644;4.734;2023-04-03T02:28:08;3.60;99.90
17489;DHT22;8861;52.644;4.734;2023-04-03T02:30:35;3.50;99.90
17489;DHT22;8861;52.644;4.734;2023-04-03T02:33:02;3.50;99.90
17489;DHT22;8861;52.644;4.734;2023-04-03T02:35:29;3.50;99.90
17489;DHT22;8861;52.644;4.734;2023-04-03T02:37:56;3.50;99.90
17489;DHT22;8861;52.644;4.734;2023-04-03T02:40:24;3.50;99.90
17489;DHT22;8861;52.644;4.734;2023-04-03T02:42:51;3.40;99.90
17489;DHT22;8861;52.644;4.734;2023-04-03T02:45:18;3.40;99.90
17489;DHT22;8861;52.644;4.734;2023-04-03T02:47:45;3.40;99.90
17489;DHT22;8861;52.644;4.734;2023-04-03T02:50:12;3.40;99.90
17489;DHT22;8861;52.644;4.734;2023-04-03T02:52:40;3.40;99.90
17489;DHT22;8861;52.644;4.734;2023-04-03T02:55:07;3.30;99.90
17489;DHT22;8861;52.644;4.734;2023-04-03T02:57:36;3.40;99.90
17489;DHT22;8861;52.644;4.734;2023-04-03T03:00:03;3.30;99.90
17489;DHT22;8861;52.644;4.734;2023-04-03T03:02:30;3.30;99.90
17489;DHT22;8861;52.644;4.734;2023-04-03T03:04:57;3.30;99.90
17489;DHT22;8861;52.644;4.734;2023-04-03T03:07:24;3.30;99.90
17489;DHT22;8861;52.644;4.734;2023-04-03T03:09:51;3.30;99.90
17489;DHT22;8861;52.644;4.734;2023-04-03T03:12:18;3.30;99.90
17489;DHT22;8861;52.644;4.734;2023-04-03T03:14:48;3.20;99.90
17489;DHT22;8861;52.644;4.734;2023-04-03T03:17:16;3.20;99.90
17489;DHT22;8861;52.644;4.734;2023-04-03T03:19:43;3.20;99.90
17489;DHT22;8861;52.644;4.734;2023-04-03T03:22:11;3.20;99.90
17489;DHT22;8861;52.644;4.734;2023-04-03T03:24:38;3.20;99.90
17489;DHT22;8861;52.644;4.734;2023-04-03T03:27:05;3.20;99.90
17489;DHT22;8861;52.644;4.734;2023-04-03T03:29:32;3.10;99.90
17489;DHT22;8861;52.644;4.734;2023-04-03T03:32:00;3.10;99.90
17489;DHT22;8861;52.644;4.734;2023-04-03T03:34:27;3.10;99.90
17489;DHT22;8861;52.644;4.734;2023-04-03T03:36:54;3.10;99.90
17489;DHT22;8861;52.644;4.734;2023-04-03T03:39:21;3.10;99.90
17489;DHT22;8861;52.644;4.734;2023-04-03T03:41:48;3.10;99.90
17489;DHT22;8861;52.644;4.734;2023-04-03T03:44:16;3.10;99.90
17489;DHT22;8861;52.644;4.734;2023-04-03T03:46:43;3.00;99.90
17489;DHT22;8861;52.644;4.734;2023-04-03T03:49:11;3.00;99.90
17489;DHT22;8861;52.644;4.734;2023-04-03T03:51:38;3.00;99.90
17489;DHT22;8861;52.644;4.734;2023-04-03T03:54:06;3.00;99.90
17489;DHT22;8861;52.644;4.734;2023-04-03T03:56:34;3.00;99.90
17489;DHT22;8861;52.644;4.734;2023-04-03T03:59:01;3.00;99.90
17489;DHT22;8861;52.644;4.734;2023-04-03T04:01:28;3.00;99.90
17489;DHT22;8861;52.644;4.734;2023-04-03T04:03:55;3.00;99.90
17489;DHT22;8861;52.644;4.734;2023-04-03T04:06:23;3.00;99.90
17489;DHT22;8861;52.644;4.734;2023-04-03T04:08:50;3.00;99.90
17489;DHT22;8861;52.644;4.734;2023-04-03T04:11:17;3.00;99.90
17489;DHT22;8861;52.644;4.734;2023-04-03T04:13:45;3.00;99.90
17489;DHT22;8861;52.644;4.734;2023-04-03T04:16:12;3.00;99.90
17489;DHT22;8861;52.644;4.734;2023-04-03T04:18:39;3.00;99.90
17489;DHT22;8861;52.644;4.734;2023-04-03T04:21:06;2.90;99.90
17489;DHT22;8861;52.644;4.734;2023-04-03T04:23:34;2.90;99.90
17489;DHT22;8861;52.644;4.734;2023-04-03T04:26:01;2.90;99.90
17489;DHT22;8861;52.644;4.734;2023-04-03T04:28:28;2.90;99.90
17489;DHT22;8861;52.644;4.734;2023-04-03T04:30:55;2.90;99.90
17489;DHT22;8861;52.644;4.734;2023-04-03T04:33:22;2.90;99.90
17489;DHT22;8861;52.644;4.734;2023-04-03T04:35:49;2.90;99.90
17489;DHT22;8861;52.644;4.734;2023-04-03T04:38:17;2.90;99.90
17489;DHT22;8861;52.644;4.734;2023-04-03T04:40:47;2.90;99.90
17489;DHT22;8861;52.644;4.734;2023-04-03T04:43:14;2.90;99.90
17489;DHT22;8861;52.644;4.734;2023-04-03T04:45:41;2.80;99.90
17489;DHT22;8861;52.644;4.734;2023-04-03T04:48:08;2.80;99.90
17489;DHT22;8861;52.644;4.734;2023-04-03T04:50:35;2.80;99.90
17489;DHT22;8861;52.644;4.734;2023-04-03T04:53:02;2.80;99.90
17489;DHT22;8861;52.644;4.734;2023-04-03T04:55:30;2.80;99.90
17489;DHT22;8861;52.644;4.734;2023-04-03T04:57:58;2.90;99.90
17489;DHT22;8861;52.644;4.734;2023-04-03T05:00:25;2.80;99.90
17489;DHT22;8861;52.644;4.734;2023-04-03T05:02:52;2.80;99.90
17489;DHT22;8861;52.644;4.734;2023-04-03T05:05:19;2.90;99.90
17489;DHT22;8861;52.644;4.734;2023-04-03T05:07:46;2.90;99.90
17489;DHT22;8861;52.644;4.734;2023-04-03T05:10:13;2.80;99.90
17489;DHT22;8861;52.644;4.734;2023-04-03T05:12:40;2.80;99.90
17489;DHT22;8861;52.644;4.734;2023-04-03T05:15:09;2.80;99.90
17489;DHT22;8861;52.644;4.734;2023-04-03T05:17:36;2.90;99.90
17489;DHT22;8861;52.644;4.734;2023-04-03T05:20:05;2.90;99.90
17489;DHT22;8861;52.644;4.734;2023-04-03T05:22:32;2.90;99.90
17489;DHT22;8861;52.644;4.734;2023-04-03T05:24:59;2.80;99.90
17489;DHT22;8861;52.644;4.734;2023-04-03T05:27:26;2.90;99.90
17489;DHT22;8861;52.644;4.734;2023-04-03T05:29:54;2.90;99.90
17489;DHT22;8861;52.644;4.734;2023-04-03T05:32:23;2.90;99.90
17489;DHT22;8861;52.644;4.734;2023-04-03T05:34:50;2.90;99.90
17489;DHT22;8861;52.644;4.734;2023-04-03T05:37:18;2.90;99.90
17489;DHT22;8861;52.644;4.734;2023-04-03T05:39:45;2.90;99.90
17489;DHT22;8861;52.644;4.734;2023-04-03T05:42:12;3.00;99.90
17489;DHT22;8861;52.644;4.734;2023-04-03T05:44:39;3.00;99.90
17489;DHT22;8861;52.644;4.734;2023-04-03T05:47:06;3.00;99.90
17489;DHT22;8861;52.644;4.734;2023-04-03T05:49:35;3.10;99.90
17489;DHT22;8861;52.644;4.734;2023-04-03T05:52:06;3.10;99.90
17489;DHT22;8861;52.644;4.734;2023-04-03T05:54:33;3.10;99.90
17489;DHT22;8861;52.644;4.734;2023-04-03T05:57:00;3.20;99.90
17489;DHT22;8861;52.644;4.734;2023-04-03T05:59:27;3.20;99.90
17489;DHT22;8861;52.644;4.734;2023-04-03T06:01:54;3.20;99.90
17489;DHT22;8861;52.644;4.734;2023-04-03T06:04:21;3.30;99.90
17489;DHT22;8861;52.644;4.734;2023-04-03T06:06:52;3.30;99.90
17489;DHT22;8861;52.644;4.734;2023-04-03T06:09:21;3.40;99.90
17489;DHT22;8861;52.644;4.734;2023-04-03T06:11:48;3.40;99.90
17489;DHT22;8861;52.644;4.734;2023-04-03T06:14:15;3.50;99.90
17489;DHT22;8861;52.644;4.734;2023-04-03T06:16:43;3.60;99.90
17489;DHT22;8861;52.644;4.734;2023-04-03T06:19:10;3.60;99.90
17489;DHT22;8861;52.644;4.734;2023-04-03T06:21:38;3.70;99.90
17489;DHT22;8861;52.644;4.734;2023-04-03T06:24:07;3.80;99.90
17489;DHT22;8861;52.644;4.734;2023-04-03T06:26:34;3.80;99.90
17489;DHT22;8861;52.644;4.734;2023-04-03T06:29:01;3.90;99.90
17489;DHT22;8861;52.644;4.734;2023-04-03T06:31:28;4.00;99.90
17489;DHT22;8861;52.644;4.734;2023-04-03T06:33:55;4.10;99.90
17489;DHT22;8861;52.644;4.734;2023-04-03T06:36:23;4.10;99.90
17489;DHT22;8861;52.644;4.734;2023-04-03T06:38:50;4.20;99.90
17489;DHT22;8861;52.644;4.734;2023-04-03T06:41:18;4.20;99.90
17489;DHT22;8861;52.644;4.734;2023-04-03T06:43:46;4.30;99.90
17489;DHT22;8861;52.644;4.734;2023-04-03T06:46:15;4.30;99.90
17489;DHT22;8861;52.644;4.734;2023-04-03T06:48:43;4.40;99.90
17489;DHT22;8861;52.644;4.734;2023-04-03T06:51:17;4.50;99.90
17489;DHT22;8861;52.644;4.734;2023-04-03T06:53:45;4.50;99.90
17489;DHT22;8861;52.644;4.734;2023-04-03T06:56:12;4.60;99.90
17489;DHT22;8861;52.644;4.734;2023-04-03T06:58:42;4.60;99.90
17489;DHT22;8861;52.644;4.734;2023-04-03T07:01:09;4.70;99.90
17489;DHT22;8861;52.644;4.734;2023-04-03T07:03:37;4.70;99.90
17489;DHT22;8861;52.644;4.734;2023-04-03T07:06:05;4.70;99.90
17489;DHT22;8861;52.644;4.734;2023-04-03T07:08:33;4.70;99.90
17489;DHT22;8861;52.644;4.734;2023-04-03T07:11:01;4.80;99.90
17489;DHT22;8861;52.644;4.734;2023-04-03T07:13:29;4.80;99.90
17489;DHT22;8861;52.644;4.734;2023-04-03T07:15:57;4.80;99.90
17489;DHT22;8861;52.644;4.734;2023-04-03T07:18:24;4.90;99.90
17489;DHT22;8861;52.644;4.734;2023-04-03T07:20:52;4.90;99.90
17489;DHT22;8861;52.644;4.734;2023-04-03T07:23:19;4.90;99.90
17489;DHT22;8861;52.644;4.734;2023-04-03T07:25:47;5.00;99.90
17489;DHT22;8861;52.644;4.734;2023-04-03T07:28:15;5.00;99.90
17489;DHT22;8861;52.644;4.734;2023-04-03T07:30:43;5.00;99.90
17489;DHT22;8861;52.644;4.734;2023-04-03T07:33:12;5.10;99.90
17489;DHT22;8861;52.644;4.734;2023-04-03T07:35:40;5.10;99.90
17489;DHT22;8861;52.644;4.734;2023-04-03T07:38:07;5.20;99.90
17489;DHT22;8861;52.644;4.734;2023-04-03T07:40:35;5.20;99.90
17489;DHT22;8861;52.644;4.734;2023-04-03T07:43:02;5.30;99.90
17489;DHT22;8861;52.644;4.734;2023-04-03T07:45:30;5.30;99.90
17489;DHT22;8861;52.644;4.734;2023-04-03T07:47:57;5.30;99.90
17489;DHT22;8861;52.644;4.734;2023-04-03T07:50:25;5.40;99.90
17489;DHT22;8861;52.644;4.734;2023-04-03T07:52:52;5.40;99.90
17489;DHT22;8861;52.644;4.734;2023-04-03T07:55:20;5.40;99.90
17489;DHT22;8861;52.644;4.734;2023-04-03T07:57:47;5.40;99.90
17489;DHT22;8861;52.644;4.734;2023-04-03T08:00:14;5.50;99.90
17489;DHT22;8861;52.644;4.734;2023-04-03T08:02:43;5.50;99.90
17489;DHT22;8861;52.644;4.734;2023-04-03T08:05:16;5.50;99.90
17489;DHT22;8861;52.644;4.734;2023-04-03T08:07:44;5.50;99.90
17489;DHT22;8861;52.644;4.734;2023-04-03T08:10:12;5.50;99.90
17489;DHT22;8861;52.644;4.734;2023-04-03T08:12:39;5.50;99.90
17489;DHT22;8861;52.644;4.734;2023-04-03T08:15:07;5.50;99.90
17489;DHT22;8861;52.644;4.734;2023-04-03T08:17:35;5.60;99.90
17489;DHT22;8861;52.644;4.734;2023-04-03T08:20:03;5.60;99.90
17489;DHT22;8861;52.644;4.734;2023-04-03T08:22:30;5.70;99.90
17489;DHT22;8861;52.644;4.734;2023-04-03T08:24:58;5.70;99.90
17489;DHT22;8861;52.644;4.734;2023-04-03T08:27:26;5.70;99.90
17489;DHT22;8861;52.644;4.734;2023-04-03T08:29:54;5.80;99.90
17489;DHT22;8861;52.644;4.734;2023-04-03T08:32:21;5.80;99.90
17489;DHT22;8861;52.644;4.734;2023-04-03T08:34:48;5.80;99.90
17489;DHT22;8861;52.644;4.734;2023-04-03T08:37:15;5.90;99.90
17489;DHT22;8861;52.644;4.734;2023-04-03T08:39:43;5.90;99.90
17489;DHT22;8861;52.644;4.734;2023-04-03T08:42:18;5.90;99.90
17489;DHT22;8861;52.644;4.734;2023-04-03T08:44:48;6.00;99.90
17489;DHT22;8861;52.644;4.734;2023-04-03T08:47:23;6.00;99.90
17489;DHT22;8861;52.644;4.734;2023-04-03T08:49:53;6.00;99.90
17489;DHT22;8861;52.644;4.734;2023-04-03T08:52:27;6.00;99.90
17489;DHT22;8861;52.644;4.734;2023-04-03T08:55:00;6.10;99.90
17489;DHT22;8861;52.644;4.734;2023-04-03T08:57:32;6.10;99.90
17489;DHT22;8861;52.644;4.734;2023-04-03T09:00:03;6.20;99.90
17489;DHT22;8861;52.644;4.734;2023-04-03T09:02:35;6.30;99.90
17489;DHT22;8861;52.644;4.734;2023-04-03T09:05:11;6.40;99.90
17489;DHT22;8861;52.644;4.734;2023-04-03T09:07:43;6.40;99.90
17489;DHT22;8861;52.644;4.734;2023-04-03T09:10:23;6.40;99.90
17489;DHT22;8861;52.644;4.734;2023-04-03T09:12:58;6.50;99.90
17489;DHT22;8861;52.644;4.734;2023-04-03T09:15:26;6.50;99.90
17489;DHT22;8861;52.644;4.734;2023-04-03T09:17:59;6.60;99.90
17489;DHT22;8861;52.644;4.734;2023-04-03T09:20:39;6.60;99.90
17489;DHT22;8861;52.644;4.734;2023-04-03T09:23:22;6.70;99.90
17489;DHT22;8861;52.644;4.734;2023-04-03T09:25:54;6.80;99.90
17489;DHT22;8861;52.644;4.734;2023-04-03T09:28:25;6.90;99.90
17489;DHT22;8861;52.644;4.734;2023-04-03T09:30:52;6.90;99.90
17489;DHT22;8861;52.644;4.734;2023-04-03T09:33:20;6.90;99.90
17489;DHT22;8861;52.644;4.734;2023-04-03T09:35:48;7.00;99.90
17489;DHT22;8861;52.644;4.734;2023-04-03T09:38:20;7.00;99.90
17489;DHT22;8861;52.644;4.734;2023-04-03T09:40:49;7.00;99.90
17489;DHT22;8861;52.644;4.734;2023-04-03T09:43:26;7.10;99.90
17489;DHT22;8861;52.644;4.734;2023-04-03T09:45:54;7.10;99.90
17489;DHT22;8861;52.644;4.734;2023-04-03T09:48:23;7.20;99.90
17489;DHT22;8861;52.644;4.734;2023-04-03T09:50:56;7.20;99.90
17489;DHT22;8861;52.644;4.734;2023-04-03T09:53:30;7.30;99.90
17489;DHT22;8861;52.644;4.734;2023-04-03T09:55:58;7.30;99.90
17489;DHT22;8861;52.644;4.734;2023-04-03T09:58:36;7.40;99.90
17489;DHT22;8861;52.644;4.734;2023-04-03T10:01:09;7.50;99.90
17489;DHT22;8861;52.644;4.734;2023-04-03T10:04:08;7.50;99.90
17489;DHT22;8861;52.644;4.734;2023-04-03T10:06:38;7.50;99.90
17489;DHT22;8861;52.644;4.734;2023-04-03T10:09:17;7.50;99.90
17489;DHT22;8861;52.644;4.734;2023-04-03T10:11:58;7.60;99.90
17489;DHT22;8861;52.644;4.734;2023-04-03T10:14:28;7.60;99.90
17489;DHT22;8861;52.644;4.734;2023-04-03T10:17:03;7.60;99.90
17489;DHT22;8861;52.644;4.734;2023-04-03T10:19:35;7.70;99.90
17489;DHT22;8861;52.644;4.734;2023-04-03T10:22:07;7.80;99.90
17489;DHT22;8861;52.644;4.734;2023-04-03T10:24:43;7.90;99.90
17489;DHT22;8861;52.644;4.734;2023-04-03T10:27:16;7.90;99.90
17489;DHT22;8861;52.644;4.734;2023-04-03T10:29:51;7.90;99.90
17489;DHT22;8861;52.644;4.734;2023-04-03T10:32:48;8.00;99.90
17489;DHT22;8861;52.644;4.734;2023-04-03T10:35:28;8.10;99.90
17489;DHT22;8861;52.644;4.734;2023-04-03T10:38:03;8.10;99.90
17489;DHT22;8861;52.644;4.734;2023-04-03T10:40:34;8.20;99.90
17489;DHT22;8861;52.644;4.734;2023-04-03T10:43:09;8.20;99.90
17489;DHT22;8861;52.644;4.734;2023-04-03T10:45:52;8.20;99.90
17489;DHT22;8861;52.644;4.734;2023-04-03T10:48:27;8.20;99.90
17489;DHT22;8861;52.644;4.734;2023-04-03T10:51:01;8.30;99.90
17489;DHT22;8861;52.644;4.734;2023-04-03T10:53:39;8.40;99.90
17489;DHT22;8861;52.644;4.734;2023-04-03T10:56:13;8.50;99.90
17489;DHT22;8861;52.644;4.734;2023-04-03T10:58:44;8.50;99.90
17489;DHT22;8861;52.644;4.734;2023-04-03T11:01:16;8.60;99.90
17489;DHT22;8861;52.644;4.734;2023-04-03T11:03:44;8.60;99.90
17489;DHT22;8861;52.644;4.734;2023-04-03T11:06:15;8.60;99.90
17489;DHT22;8861;52.644;4.734;2023-04-03T11:08:46;8.60;99.90
17489;DHT22;8861;52.644;4.734;2023-04-03T11:11:24;8.60;99.90
17489;DHT22;8861;52.644;4.734;2023-04-03T11:13:56;8.70;99.90
17489;DHT22;8861;52.644;4.734;2023-04-03T11:16:28;8.70;99.90
17489;DHT22;8861;52.644;4.734;2023-04-03T11:18:59;8.80;99.90
17489;DHT22;8861;52.644;4.734;2023-04-03T11:21:29;8.80;99.90
17489;DHT22;8861;52.644;4.734;2023-04-03T11:24:03;8.90;99.90
17489;DHT22;8861;52.644;4.734;2023-04-03T11:26:38;8.90;99.90
17489;DHT22;8861;52.644;4.734;2023-04-03T11:29:09;9.00;99.90
17489;DHT22;8861;52.644;4.734;2023-04-03T11:31:48;9.00;99.90
17489;DHT22;8861;52.644;4.734;2023-04-03T11:34:29;9.00;99.90
17489;DHT22;8861;52.644;4.734;2023-04-03T11:37:00;9.10;99.90
17489;DHT22;8861;52.644;4.734;2023-04-03T11:39:30;9.10;99.90
17489;DHT22;8861;52.644;4.734;2023-04-03T11:42:14;9.10;99.90
17489;DHT22;8861;52.644;4.734;2023-04-03T11:44:42;9.20;99.90
17489;DHT22;8861;52.644;4.734;2023-04-03T11:47:11;9.20;99.90
17489;DHT22;8861;52.644;4.734;2023-04-03T11:49:56;9.20;99.90
17489;DHT22;8861;52.644;4.734;2023-04-03T11:52:55;9.30;99.90
17489;DHT22;8861;52.644;4.734;2023-04-03T11:55:54;9.40;99.90
17489;DHT22;8861;52.644;4.734;2023-04-03T11:58:22;9.50;99.90
17489;DHT22;8861;52.644;4.734;2023-04-03T12:01:01;9.50;99.90
17489;DHT22;8861;52.644;4.734;2023-04-03T12:04:10;9.60;99.90
17489;DHT22;8861;52.644;4.734;2023-04-03T12:07:02;9.80;99.90
17489;DHT22;8861;52.644;4.734;2023-04-03T12:10:13;10.40;99.90
17489;DHT22;8861;52.644;4.734;2023-04-03T12:12:42;11.40;99.90
17489;DHT22;8861;52.644;4.734;2023-04-03T12:15:25;12.20;99.90
17489;DHT22;8861;52.644;4.734;2023-04-03T12:17:52;13.00;99.90
17489;DHT22;8861;52.644;4.734;2023-04-03T12:20:55;13.50;99.90
17489;DHT22;8861;52.644;4.734;2023-04-03T12:23:27;14.10;99.90
17489;DHT22;8861;52.644;4.734;2023-04-03T12:26:02;14.50;99.90
17489;DHT22;8861;52.644;4.734;2023-04-03T12:28:35;15.00;99.90
17489;DHT22;8861;52.644;4.734;2023-04-03T12:31:05;15.30;99.90
17489;DHT22;8861;52.644;4.734;2023-04-03T12:33:47;15.60;99.90
17489;DHT22;8861;52.644;4.734;2023-04-03T12:36:28;15.70;99.90
17489;DHT22;8861;52.644;4.734;2023-04-03T12:42:20;16.20;99.90
17489;DHT22;8861;52.644;4.734;2023-04-03T12:44:58;16.10;99.90
17489;DHT22;8861;52.644;4.734;2023-04-03T12:47:32;16.30;99.90
17489;DHT22;8861;52.644;4.734;2023-04-03T12:50:04;16.50;99.90
17489;DHT22;8861;52.644;4.734;2023-04-03T12:52:39;16.20;99.90
17489;DHT22;8861;52.644;4.734;2023-04-03T12:55:14;15.60;99.90
17489;DHT22;8861;52.644;4.734;2023-04-03T12:57:41;14.70;99.90
17489;DHT22;8861;52.644;4.734;2023-04-03T13:00:35;13.80;99.90
17489;DHT22;8861;52.644;4.734;2023-04-03T13:03:06;12.90;99.90
17489;DHT22;8861;52.644;4.734;2023-04-03T13:05:34;12.40;99.90
17489;DHT22;8861;52.644;4.734;2023-04-03T13:08:08;12.00;99.90
17489;DHT22;8861;52.644;4.734;2023-04-03T13:10:47;11.60;99.90
17489;DHT22;8861;52.644;4.734;2023-04-03T13:13:16;11.30;99.90
17489;DHT22;8861;52.644;4.734;2023-04-03T13:15:44;11.10;99.90
17489;DHT22;8861;52.644;4.734;2023-04-03T13:18:26;10.90;99.90
17489;DHT22;8861;52.644;4.734;2023-04-03T13:20:58;10.90;99.90
17489;DHT22;8861;52.644;4.734;2023-04-03T13:23:28;11.00;99.90
17489;DHT22;8861;52.644;4.734;2023-04-03T13:25:56;11.00;99.90
17489;DHT22;8861;52.644;4.734;2023-04-03T13:28:27;10.90;99.90
17489;DHT22;8861;52.644;4.734;2023-04-03T13:31:03;10.90;99.90
17489;DHT22;8861;52.644;4.734;2023-04-03T13:33:33;10.80;99.90
17489;DHT22;8861;52.644;4.734;2023-04-03T13:36:05;10.90;99.90
17489;DHT22;8861;52.644;4.734;2023-04-03T13:38:34;11.10;99.90
17489;DHT22;8861;52.644;4.734;2023-04-03T13:41:04;11.30;99.90
17489;DHT22;8861;52.644;4.734;2023-04-03T13:43:35;11.40;99.90
17489;DHT22;8861;52.644;4.734;2023-04-03T13:46:19;11.70;99.90
17489;DHT22;8861;52.644;4.734;2023-04-03T13:48:49;11.90;99.90
17489;DHT22;8861;52.644;4.734;2023-04-03T13:51:21;11.90;99.90
17489;DHT22;8861;52.644;4.734;2023-04-03T13:53:52;11.70;99.90
17489;DHT22;8861;52.644;4.734;2023-04-03T13:56:25;11.60;99.90
17489;DHT22;8861;52.644;4.734;2023-04-03T13:59:00;11.50;99.90
17489;DHT22;8861;52.644;4.734;2023-04-03T14:01:39;11.40;99.90
17489;DHT22;8861;52.644;4.734;2023-04-03T14:04:14;11.30;99.90
17489;DHT22;8861;52.644;4.734;2023-04-03T14:06:41;11.30;99.90
17489;DHT22;8861;52.644;4.734;2023-04-03T14:09:10;11.20;99.90
17489;DHT22;8861;52.644;4.734;2023-04-03T14:11:38;11.20;99.90
17489;DHT22;8861;52.644;4.734;2023-04-03T14:14:13;11.20;99.90
17489;DHT22;8861;52.644;4.734;2023-04-03T14:16:43;11.20;99.90
17489;DHT22;8861;52.644;4.734;2023-04-03T14:19:18;11.40;99.90
17489;DHT22;8861;52.644;4.734;2023-04-03T14:21:45;11.90;99.90
17489;DHT22;8861;52.644;4.734;2023-04-03T14:24:14;12.50;99.90
17489;DHT22;8861;52.644;4.734;2023-04-03T14:26:42;13.10;99.90
17489;DHT22;8861;52.644;4.734;2023-04-03T14:29:11;13.30;99.90
17489;DHT22;8861;52.644;4.734;2023-04-03T14:31:38;13.40;99.90
17489;DHT22;8861;52.644;4.734;2023-04-03T14:34:05;13.40;99.90
17489;DHT22;8861;52.644;4.734;2023-04-03T14:36:33;13.50;99.90
17489;DHT22;8861;52.644;4.734;2023-04-03T14:39:00;14.50;99.90
17489;DHT22;8861;52.644;4.734;2023-04-03T14:41:29;15.70;99.90
17489;DHT22;8861;52.644;4.734;2023-04-03T14:43:56;16.70;99.90
17489;DHT22;8861;52.644;4.734;2023-04-03T14:46:26;17.60;99.90
17489;DHT22;8861;52.644;4.734;2023-04-03T14:48:55;18.80;99.90
17489;DHT22;8861;52.644;4.734;2023-04-03T14:51:22;20.00;99.10
17489;DHT22;8861;52.644;4.734;2023-04-03T14:53:49;21.10;96.70
17489;DHT22;8861;52.644;4.734;2023-04-03T14:56:19;21.90;94.40
17489;DHT22;8861;52.644;4.734;2023-04-03T14:58:49;22.40;92.00
17489;DHT22;8861;52.644;4.734;2023-04-03T15:01:18;22.60;90.30
17489;DHT22;8861;52.644;4.734;2023-04-03T15:03:45;22.70;87.90
17489;DHT22;8861;52.644;4.734;2023-04-03T15:06:13;22.80;86.60
17489;DHT22;8861;52.644;4.734;2023-04-03T15:08:41;22.80;84.50
17489;DHT22;8861;52.644;4.734;2023-04-03T15:11:09;22.70;83.60
17489;DHT22;8861;52.644;4.734;2023-04-03T15:13:37;22.30;82.40
17489;DHT22;8861;52.644;4.734;2023-04-03T15:16:09;22.00;82.80
17489;DHT22;8861;52.644;4.734;2023-04-03T15:18:39;21.80;82.90
17489;DHT22;8861;52.644;4.734;2023-04-03T15:21:06;21.50;83.20
17489;DHT22;8861;52.644;4.734;2023-04-03T15:23:33;21.20;83.50
17489;DHT22;8861;52.644;4.734;2023-04-03T15:26:00;20.80;83.90
17489;DHT22;8861;52.644;4.734;2023-04-03T15:28:30;20.50;84.50
17489;DHT22;8861;52.644;4.734;2023-04-03T15:30:57;20.20;85.40
17489;DHT22;8861;52.644;4.734;2023-04-03T15:33:26;19.60;86.00
17489;DHT22;8861;52.644;4.734;2023-04-03T15:35:53;18.80;87.30
17489;DHT22;8861;52.644;4.734;2023-04-03T15:38:20;17.90;87.30
17489;DHT22;8861;52.644;4.734;2023-04-03T15:40:47;17.10;90.00
17489;DHT22;8861;52.644;4.734;2023-04-03T15:43:14;16.40;90.90
17489;DHT22;8861;52.644;4.734;2023-04-03T15:45:42;15.70;91.50
17489;DHT22;8861;52.644;4.734;2023-04-03T15:48:09;15.10;91.90
17489;DHT22;8861;52.644;4.734;2023-04-03T15:50:39;14.70;93.00
17489;DHT22;8861;52.644;4.734;2023-04-03T15:53:07;14.40;93.30
17489;DHT22;8861;52.644;4.734;2023-04-03T15:55:36;14.20;93.70
17489;DHT22;8861;52.644;4.734;2023-04-03T15:58:03;14.00;93.20
17489;DHT22;8861;52.644;4.734;2023-04-03T16:00:31;13.70;93.60
17489;DHT22;8861;52.644;4.734;2023-04-03T16:03:04;13.50;94.10
17489;DHT22;8861;52.644;4.734;2023-04-03T16:05:32;13.40;94.50
17489;DHT22;8861;52.644;4.734;2023-04-03T16:08:01;13.30;94.70
17489;DHT22;8861;52.644;4.734;2023-04-03T16:10:28;13.20;95.10
17489;DHT22;8861;52.644;4.734;2023-04-03T16:12:55;13.20;95.50
17489;DHT22;8861;52.644;4.734;2023-04-03T16:15:22;13.20;95.70
17489;DHT22;8861;52.644;4.734;2023-04-03T16:17:50;13.10;95.90
17489;DHT22;8861;52.644;4.734;2023-04-03T16:20:17;13.10;96.30